Time;durP1;ratioP1;P1;durP2;ratioP2;P2;SDS_P1;SDS_P2;PMS_P1;PMS_P2;Temp;Humidity;BMP_temperature;BMP_pressure;BME280_temperature;BME280_humidity;BME280_pressure;Samples;Min_cycle;Max_cycle;Signal;HPM_P1;HPM_P2
2021/07/10 00:01:18;;;;;;;0.10;0.10;;;;;;;;;;4936153;29;20442;-88
2021/07/10 00:03:44;;;;;;;0.20;0.20;;;;;;;;;;4936209;29;20044;-88
2021/07/10 00:06:10;;;;;;;0.10;0.10;;;;;;;;;;4936134;29;20043;-88
2021/07/10 00:08:36;;;;;;;0.20;0.20;;;;;;;;;;4935792;29;20134;-87
2021/07/10 00:11:03;;;;;;;0.10;0.10;;;;;;;;;;4935898;29;20147;-88
2021/07/10 00:13:29;;;;;;;0.10;0.10;;;;;;;;;;4935806;29;20039;-88
2021/07/10 00:15:55;;;;;;;0.10;0.10;;;;;;;;;;4935743;29;20036;-88
2021/07/10 00:18:21;;;;;;;0.10;0.10;;;;;;;;;;4935776;29;20055;-88
2021/07/10 00:20:47;;;;;;;0.20;0.20;;;;;;;;;;4935766;29;20483;-88
2021/07/10 00:23:13;;;;;;;0.10;0.10;;;;;;;;;;4935738;29;20040;-88
2021/07/10 00:25:39;;;;;;;0.20;0.20;;;;;;;;;;4935613;29;20047;-88
2021/07/10 00:28:07;;;;;;;0.10;0.10;;;;;;;;;;4950515;28;20212;-88
2021/07/10 00:30:33;;;;;;;0.20;0.20;;;;;;;;;;4935477;29;20031;-88
2021/07/10 00:32:59;;;;;;;0.30;0.30;;;;;;;;;;4935511;29;20036;-87
2021/07/10 00:35:25;;;;;;;0.20;0.20;;;;;;;;;;4935306;29;20047;-88
2021/07/10 00:37:51;;;;;;;0.10;0.10;;;;;;;;;;4936138;29;20056;-88
2021/07/10 00:40:17;;;;;;;0.30;0.30;;;;;;;;;;4936497;29;20045;-88
2021/07/10 00:42:45;;;;;;;0.20;0.20;;;;;;;;;;4935435;29;20046;-87
2021/07/10 00:45:12;;;;;;;0.10;0.10;;;;;;;;;;4935830;29;20063;-87
2021/07/10 00:47:38;;;;;;;0.10;0.10;;;;;;;;;;4935187;29;20041;-87
2021/07/10 00:50:14;;;;;;;0.10;0.10;;;;;;;;;;4935137;29;20043;-87
2021/07/10 00:52:40;;;;;;;0.10;0.10;;;;;;;;;;4935058;29;20039;-87
2021/07/10 00:55:07;;;;;;;0.10;0.10;;;;;;;;;;4935033;29;20458;-87
2021/07/10 00:57:33;;;;;;;0.20;0.20;;;;;;;;;;4950820;28;20385;-87
2021/07/10 00:59:59;;;;;;;0.10;0.10;;;;;;;;;;4934948;29;20047;-88
2021/07/10 01:02:25;;;;;;;0.10;0.10;;;;;;;;;;4935281;29;20147;-88
2021/07/10 01:04:51;;;;;;;0.10;0.10;;;;;;;;;;4934836;29;20111;-87
2021/07/10 01:07:17;;;;;;;0.10;0.10;;;;;;;;;;4936210;29;20700;-88
2021/07/10 01:09:43;;;;;;;0.10;0.10;;;;;;;;;;4934963;29;20032;-88
2021/07/10 01:12:09;;;;;;;0.10;0.10;;;;;;;;;;4934854;29;20043;-88
2021/07/10 01:14:35;;;;;;;0.10;0.10;;;;;;;;;;4934724;29;20499;-89
2021/07/10 01:17:01;;;;;;;0.10;0.10;;;;;;;;;;4934749;29;20048;-89
2021/07/10 01:19:27;;;;;;;0.10;0.10;;;;;;;;;;4934624;29;20036;-88
2021/07/10 01:21:57;;;;;;;0.10;0.10;;;;;;;;;;4934804;29;20071;-88
2021/07/10 01:24:23;;;;;;;0.10;0.10;;;;;;;;;;4934563;29;20392;-88
2021/07/10 01:26:49;;;;;;;0.20;0.20;;;;;;;;;;4935754;29;20058;-89
2021/07/10 01:29:15;;;;;;;0.10;0.10;;;;;;;;;;4934691;29;20416;-88
2021/07/10 01:31:41;;;;;;;0.65;0.30;;;;;;;;;;4950269;29;20039;-88
2021/07/10 01:34:07;;;;;;;0.10;0.10;;;;;;;;;;4934288;29;20071;-88
2021/07/10 01:36:34;;;;;;;0.10;0.10;;;;;;;;;;4934199;29;20059;-88
2021/07/10 01:39:00;;;;;;;0.20;0.20;;;;;;;;;;4934107;29;20115;-88
2021/07/10 01:41:26;;;;;;;0.10;0.10;;;;;;;;;;4935518;29;20067;-89
2021/07/10 01:43:52;;;;;;;0.10;0.10;;;;;;;;;;4934446;29;20043;-89
2021/07/10 01:46:19;;;;;;;0.10;0.10;;;;;;;;;;4935622;29;20051;-88
2021/07/10 01:48:46;;;;;;;0.20;0.20;;;;;;;;;;4934231;29;20460;-89
2021/07/10 01:51:12;;;;;;;0.10;0.10;;;;;;;;;;4934232;29;20337;-88
2021/07/10 01:53:38;;;;;;;0.10;0.10;;;;;;;;;;4935327;29;20065;-88
2021/07/10 01:56:04;;;;;;;0.10;0.10;;;;;;;;;;4934100;29;20107;-88
2021/07/10 01:58:30;;;;;;;0.10;0.10;;;;;;;;;;4949829;28;20055;-88
2021/07/10 02:00:57;;;;;;;0.10;0.10;;;;;;;;;;4934107;29;20044;-88
2021/07/10 02:03:23;;;;;;;0.10;0.10;;;;;;;;;;4934005;29;20491;-88
2021/07/10 02:05:49;;;;;;;0.10;0.10;;;;;;;;;;4934166;29;20044;-89
2021/07/10 02:08:15;;;;;;;0.10;0.10;;;;;;;;;;4934029;29;20036;-89
2021/07/10 02:10:41;;;;;;;0.10;0.10;;;;;;;;;;4934338;29;20074;-89
2021/07/10 02:13:08;;;;;;;0.10;0.10;;;;;;;;;;4918179;29;20047;-88
2021/07/10 02:15:34;;;;;;;0.10;0.10;;;;;;;;;;4934231;29;20039;-89
2021/07/10 02:18:01;;;;;;;0.10;0.10;;;;;;;;;;4949672;28;20074;-88
2021/07/10 02:20:27;;;;;;;0.10;0.10;;;;;;;;;;4933866;29;20091;-88
2021/07/10 02:22:53;;;;;;;0.10;0.10;;;;;;;;;;4933910;29;20042;-88
2021/07/10 02:25:20;;;;;;;0.10;0.10;;;;;;;;;;4934021;29;20103;-89
2021/07/10 02:27:46;;;;;;;0.10;0.10;;;;;;;;;;4933844;29;20036;-88
2021/07/10 02:30:17;;;;;;;0.10;0.10;;;;;;;;;;4933642;29;20047;-88
2021/07/10 02:32:43;;;;;;;0.20;0.20;;;;;;;;;;4933947;29;20102;-88
2021/07/10 02:35:09;;;;;;;0.20;0.20;;;;;;;;;;4933777;29;20040;-88
2021/07/10 02:37:36;;;;;;;0.10;0.10;;;;;;;;;;4933494;29;20139;-88
2021/07/10 02:40:02;;;;;;;0.15;0.15;;;;;;;;;;4933938;29;20070;-88
2021/07/10 02:42:28;;;;;;;0.10;0.10;;;;;;;;;;4934930;29;20071;-89
2021/07/10 02:44:54;;;;;;;0.20;0.20;;;;;;;;;;4933613;29;20072;-89
2021/07/10 02:47:21;;;;;;;0.10;0.10;;;;;;;;;;4933828;29;20131;-89
2021/07/10 02:49:47;;;;;;;0.10;0.10;;;;;;;;;;4933793;29;20483;-89
2021/07/10 02:52:13;;;;;;;0.10;0.10;;;;;;;;;;4937573;29;20036;-89
2021/07/10 02:54:39;;;;;;;0.20;0.20;;;;;;;;;;4937446;29;20499;-88
2021/07/10 02:57:05;;;;;;;0.10;0.10;;;;;;;;;;4937371;29;20082;-89
2021/07/10 02:59:31;;;;;;;0.10;0.10;;;;;;;;;;4937197;29;20043;-88
2021/07/10 03:01:57;;;;;;;0.17;0.17;;;;;;;;;;4937312;29;20483;-89
2021/07/10 03:04:23;;;;;;;0.10;0.10;;;;;;;;;;4937288;29;20046;-88
2021/07/10 03:06:49;;;;;;;0.10;0.10;;;;;;;;;;4937043;29;20484;-88
2021/07/10 03:09:15;;;;;;;0.30;0.30;;;;;;;;;;4937311;29;20118;-88
2021/07/10 03:11:42;;;;;;;0.20;0.20;;;;;;;;;;4937016;29;20519;-90
2021/07/10 03:14:08;;;;;;;0.10;0.10;;;;;;;;;;4937105;29;20139;-90
2021/07/10 03:16:33;;;;;;;0.10;0.10;;;;;;;;;;4937119;29;20122;-90
2021/07/10 03:19:00;;;;;;;0.10;0.10;;;;;;;;;;4937183;29;20035;-90
2021/07/10 03:21:26;;;;;;;0.10;0.10;;;;;;;;;;4937345;29;20074;-89
2021/07/10 03:23:52;;;;;;;0.10;0.10;;;;;;;;;;4937259;29;20122;-89
2021/07/10 03:26:18;;;;;;;0.10;0.10;;;;;;;;;;4936905;29;20489;-89
2021/07/10 03:28:44;;;;;;;0.10;0.10;;;;;;;;;;4936661;29;20040;-89
2021/07/10 03:31:10;;;;;;;0.10;0.10;;;;;;;;;;4936768;29;20187;-89
2021/07/10 03:33:38;;;;;;;0.20;0.20;;;;;;;;;;4936958;29;20119;-89
2021/07/10 03:36:05;;;;;;;0.10;0.10;;;;;;;;;;4936496;29;20042;-89
2021/07/10 03:38:32;;;;;;;0.10;0.10;;;;;;;;;;4936682;29;20480;-88
2021/07/10 03:40:58;;;;;;;0.10;0.10;;;;;;;;;;4936499;29;20114;-89
2021/07/10 03:43:24;;;;;;;0.20;0.20;;;;;;;;;;4936712;29;20461;-89
2021/07/10 03:45:52;;;;;;;0.10;0.10;;;;;;;;;;4936547;29;20122;-89
2021/07/10 03:48:20;;;;;;;0.10;0.10;;;;;;;;;;4936745;29;20079;-89
2021/07/10 03:50:46;;;;;;;0.10;0.10;;;;;;;;;;4936427;29;20504;-88
2021/07/10 03:53:12;;;;;;;0.10;0.10;;;;;;;;;;4936286;29;20044;-87
2021/07/10 03:55:39;;;;;;;0.10;0.10;;;;;;;;;;4936016;29;20090;-87
2021/07/10 03:58:05;;;;;;;0.17;0.17;;;;;;;;;;4936350;29;20106;-87
2021/07/10 04:00:31;;;;;;;0.10;0.10;;;;;;;;;;4936106;29;20253;-87
2021/07/10 04:02:57;;;;;;;0.10;0.10;;;;;;;;;;4936165;29;20067;-87
2021/07/10 04:05:23;;;;;;;0.20;0.20;;;;;;;;;;4936059;29;20126;-87
2021/07/10 04:07:49;;;;;;;0.10;0.10;;;;;;;;;;4935869;29;20058;-87
2021/07/10 04:10:15;;;;;;;0.13;0.13;;;;;;;;;;4935801;29;20039;-87
2021/07/10 04:12:41;;;;;;;0.10;0.10;;;;;;;;;;4935851;29;20046;-87
2021/07/10 04:15:09;;;;;;;0.10;0.10;;;;;;;;;;4935671;29;20400;-87
2021/07/10 04:17:35;;;;;;;0.20;0.20;;;;;;;;;;4935766;29;20087;-87
2021/07/10 04:20:01;;;;;;;0.10;0.10;;;;;;;;;;4935662;29;20043;-87
2021/07/10 04:22:33;;;;;;;0.10;0.10;;;;;;;;;;4935850;29;20118;-88
2021/07/10 04:25:03;;;;;;;0.10;0.10;;;;;;;;;;4935769;29;20550;-87
2021/07/10 04:27:29;;;;;;;0.13;0.13;;;;;;;;;;4936244;29;20071;-87
2021/07/10 04:29:55;;;;;;;0.20;0.20;;;;;;;;;;4935780;29;20040;-88
2021/07/10 04:32:21;;;;;;;0.10;0.10;;;;;;;;;;4935662;29;20040;-88
2021/07/10 04:34:47;;;;;;;0.10;0.10;;;;;;;;;;4935469;29;20035;-89
2021/07/10 04:37:13;;;;;;;0.20;0.20;;;;;;;;;;4936526;29;20056;-88
2021/07/10 04:39:39;;;;;;;0.10;0.10;;;;;;;;;;4935369;29;20044;-89
2021/07/10 04:42:05;;;;;;;0.10;0.10;;;;;;;;;;4935608;29;20091;-88
2021/07/10 04:44:32;;;;;;;0.10;0.10;;;;;;;;;;4935533;29;20052;-88
2021/07/10 04:46:58;;;;;;;0.10;0.10;;;;;;;;;;4935499;29;20039;-88
2021/07/10 04:49:25;;;;;;;0.10;0.10;;;;;;;;;;4935398;29;20039;-88
2021/07/10 04:51:51;;;;;;;0.10;0.10;;;;;;;;;;4935317;29;20122;-88
2021/07/10 04:54:17;;;;;;;0.10;0.10;;;;;;;;;;4935077;29;20523;-88
2021/07/10 04:56:43;;;;;;;0.10;0.10;;;;;;;;;;4935097;29;20079;-88
2021/07/10 04:59:09;;;;;;;0.10;0.10;;;;;;;;;;4935215;29;20067;-88
2021/07/10 05:01:35;;;;;;;0.10;0.10;;;;;;;;;;4934932;29;20062;-88
2021/07/10 05:04:01;;;;;;;0.20;0.20;;;;;;;;;;4935236;29;20488;-89
2021/07/10 05:06:27;;;;;;;0.10;0.10;;;;;;;;;;4935000;29;20054;-89
2021/07/10 05:08:53;;;;;;;0.10;0.10;;;;;;;;;;4934966;29;20048;-88
2021/07/10 05:11:19;;;;;;;0.10;0.10;;;;;;;;;;4935007;29;20484;-88
2021/07/10 05:13:45;;;;;;;0.20;0.20;;;;;;;;;;4935826;29;20040;-86
2021/07/10 05:16:17;;;;;;;0.10;0.10;;;;;;;;;;4934721;29;20547;-95
2021/07/10 05:18:43;;;;;;;0.10;0.10;;;;;;;;;;4920489;29;20047;-89
2021/07/10 05:21:14;;;;;;;0.10;0.10;;;;;;;;;;4936850;29;20044;-95
2021/07/10 05:23:47;;;;;;;0.20;0.20;;;;;;;;;;4942136;29;20040;-95
2021/07/10 05:26:13;;;;;;;0.20;0.20;;;;;;;;;;4935126;29;20101;-93
2021/07/10 05:28:39;;;;;;;0.10;0.10;;;;;;;;;;4919916;29;20051;-91
2021/07/10 05:31:05;;;;;;;0.10;0.10;;;;;;;;;;4934699;29;20044;-89
2021/07/10 05:33:31;;;;;;;0.10;0.10;;;;;;;;;;4934516;29;20078;-87
2021/07/10 05:35:57;;;;;;;0.20;0.20;;;;;;;;;;4934139;29;20071;-88
2021/07/10 05:38:24;;;;;;;0.10;0.10;;;;;;;;;;4934266;29;20076;-89
2021/07/10 05:40:50;;;;;;;0.10;0.10;;;;;;;;;;4934498;29;20044;-84
2021/07/10 05:43:15;;;;;;;0.20;0.20;;;;;;;;;;4935428;29;20046;-90
2021/07/10 05:45:42;;;;;;;0.10;0.10;;;;;;;;;;4934857;29;20052;-91
2021/07/10 05:48:11;;;;;;;0.10;0.10;;;;;;;;;;4950215;28;20126;-88
2021/07/10 05:50:38;;;;;;;0.10;0.10;;;;;;;;;;4934396;29;20046;-89
2021/07/10 05:53:04;;;;;;;0.30;0.30;;;;;;;;;;4934297;29;20122;-89
2021/07/10 05:55:30;;;;;;;0.17;0.17;;;;;;;;;;4934329;29;20373;-90
2021/07/10 05:57:56;;;;;;;0.32;0.32;;;;;;;;;;4934163;29;20044;-89
2021/07/10 06:00:22;;;;;;;0.10;0.10;;;;;;;;;;4934131;29;20063;-90
2021/07/10 06:02:48;;;;;;;0.17;0.17;;;;;;;;;;4934005;29;20111;-90
2021/07/10 06:05:14;;;;;;;0.10;0.10;;;;;;;;;;4918344;29;20055;-90
2021/07/10 06:07:40;;;;;;;0.35;0.35;;;;;;;;;;4918152;29;20070;-89
2021/07/10 06:10:07;;;;;;;0.10;0.10;;;;;;;;;;4934187;29;20047;-89
2021/07/10 06:12:37;;;;;;;0.20;0.20;;;;;;;;;;4934276;29;20036;-89
2021/07/10 06:15:04;;;;;;;0.10;0.10;;;;;;;;;;4934268;29;20039;-89
2021/07/10 06:17:30;;;;;;;0.10;0.10;;;;;;;;;;4933787;29;20187;-90
2021/07/10 06:19:56;;;;;;;0.20;0.20;;;;;;;;;;4933958;29;20043;-89
2021/07/10 06:22:22;;;;;;;0.20;0.20;;;;;;;;;;4933978;29;20035;-90
2021/07/10 06:24:48;;;;;;;0.20;0.20;;;;;;;;;;4934033;29;20047;-90
2021/07/10 06:27:14;;;;;;;0.20;0.20;;;;;;;;;;4938041;29;20038;-90
2021/07/10 06:29:40;;;;;;;0.30;0.30;;;;;;;;;;4937878;29;20051;-90
2021/07/10 06:32:09;;;;;;;0.10;0.10;;;;;;;;;;4938121;29;20173;-89
2021/07/10 06:34:35;;;;;;;0.20;0.20;;;;;;;;;;4938354;29;20122;-90
2021/07/10 06:37:02;;;;;;;0.20;0.20;;;;;;;;;;4937761;29;20135;-88
2021/07/10 06:39:28;;;;;;;0.20;0.20;;;;;;;;;;4937685;29;20067;-87
2021/07/10 06:41:54;;;;;;;0.15;0.15;;;;;;;;;;4937806;29;20040;-89
2021/07/10 06:44:20;;;;;;;1.15;0.28;;;;;;;;;;4953344;29;20040;-89
2021/07/10 06:46:46;;;;;;;0.30;0.20;;;;;;;;;;4937444;29;20042;-89
2021/07/10 06:49:15;;;;;;;0.30;0.30;;;;;;;;;;4937570;29;20119;-90
2021/07/10 06:51:43;;;;;;;0.40;0.40;;;;;;;;;;4937461;29;20122;-90
2021/07/10 06:54:09;;;;;;;0.30;0.25;;;;;;;;;;4937732;29;20047;-93
2021/07/10 06:56:35;;;;;;;0.43;0.30;;;;;;;;;;4937404;29;20036;-91
2021/07/10 06:59:18;;;;;;;0.20;0.20;;;;;;;;;;4923808;29;20130;-88
2021/07/10 07:01:46;;;;;;;0.20;0.20;;;;;;;;;;4921536;29;20500;-88
2021/07/10 07:04:12;;;;;;;0.10;0.10;;;;;;;;;;4937269;29;20543;-88
2021/07/10 07:06:38;;;;;;;0.43;0.25;;;;;;;;;;4936958;29;20072;-89
2021/07/10 07:09:04;;;;;;;0.30;0.30;;;;;;;;;;4937308;29;20070;-88
2021/07/10 07:11:30;;;;;;;0.20;0.20;;;;;;;;;;4937174;29;20035;-89
2021/07/10 07:13:56;;;;;;;0.20;0.20;;;;;;;;;;4937398;29;20039;-90
2021/07/10 07:16:23;;;;;;;0.15;0.15;;;;;;;;;;4939189;29;20087;-89
2021/07/10 07:18:49;;;;;;;0.20;0.20;;;;;;;;;;4953165;29;20115;-87
2021/07/10 07:21:15;;;;;;;0.20;0.20;;;;;;;;;;4921366;29;20048;-86
2021/07/10 07:23:41;;;;;;;0.20;0.20;;;;;;;;;;4936761;29;20079;-88
2021/07/10 07:26:08;;;;;;;0.20;0.20;;;;;;;;;;4936861;29;20476;-88
2021/07/10 07:28:36;;;;;;;0.20;0.20;;;;;;;;;;4937731;29;20043;-84
2021/07/10 07:31:02;;;;;;;0.30;0.30;;;;;;;;;;4936978;29;20044;-84
2021/07/10 07:33:28;;;;;;;0.20;0.20;;;;;;;;;;4937730;29;20043;-85
2021/07/10 07:35:55;;;;;;;0.30;0.30;;;;;;;;;;4935995;29;20047;-86
2021/07/10 07:38:21;;;;;;;0.10;0.10;;;;;;;;;;4936545;29;20072;-86
2021/07/10 07:40:47;;;;;;;0.10;0.10;;;;;;;;;;4936343;29;20051;-86
2021/07/10 07:43:13;;;;;;;0.20;0.20;;;;;;;;;;4937604;29;20043;-84
2021/07/10 07:45:39;;;;;;;0.20;0.20;;;;;;;;;;4936540;29;20040;-84
2021/07/10 07:48:05;;;;;;;0.25;0.25;;;;;;;;;;4936317;29;20399;-85
2021/07/10 07:50:31;;;;;;;0.10;0.10;;;;;;;;;;4936389;29;20047;-85
2021/07/10 07:52:58;;;;;;;0.20;0.20;;;;;;;;;;4936222;29;20516;-85
2021/07/10 07:55:24;;;;;;;0.20;0.20;;;;;;;;;;4936144;29;20047;-87
2021/07/10 07:57:50;;;;;;;0.10;0.10;;;;;;;;;;4936114;29;20047;-85
2021/07/10 08:00:19;;;;;;;0.20;0.20;;;;;;;;;;4936184;29;20050;-84
2021/07/10 08:02:46;;;;;;;0.20;0.20;;;;;;;;;;4936032;29;20035;-85
2021/07/10 08:05:12;;;;;;;0.10;0.10;;;;;;;;;;4936257;29;20103;-86
2021/07/10 08:07:38;;;;;;;0.30;0.30;;;;;;;;;;4936062;29;20040;-86
2021/07/10 08:10:05;;;;;;;0.20;0.20;;;;;;;;;;4935982;29;20222;-86
2021/07/10 08:12:32;;;;;;;0.30;0.30;;;;;;;;;;4936055;29;20089;-90
2021/07/10 08:14:58;;;;;;;0.10;0.10;;;;;;;;;;4936089;29;20036;-86
2021/07/10 08:17:24;;;;;;;0.10;0.10;;;;;;;;;;4935694;29;20050;-87
2021/07/10 08:19:50;;;;;;;0.10;0.10;;;;;;;;;;4935937;29;20039;-86
2021/07/10 08:22:16;;;;;;;0.20;0.20;;;;;;;;;;4935744;29;20047;-86
2021/07/10 08:24:42;;;;;;;0.10;0.10;;;;;;;;;;4935747;29;20055;-86
2021/07/10 08:27:08;;;;;;;0.20;0.20;;;;;;;;;;4935648;29;20055;-87
2021/07/10 08:29:35;;;;;;;0.10;0.10;;;;;;;;;;4935619;29;20070;-86
2021/07/10 08:32:01;;;;;;;0.20;0.20;;;;;;;;;;4935747;29;20043;-87
2021/07/10 08:34:27;;;;;;;0.10;0.10;;;;;;;;;;4936585;29;20039;-86
2021/07/10 08:36:53;;;;;;;0.32;0.32;;;;;;;;;;4935158;29;20091;-86
2021/07/10 08:39:19;;;;;;;0.10;0.10;;;;;;;;;;4935367;29;20106;-86
2021/07/10 08:41:48;;;;;;;0.10;0.10;;;;;;;;;;4919519;29;20093;-86
2021/07/10 08:44:14;;;;;;;0.10;0.10;;;;;;;;;;4936510;29;20495;-87
2021/07/10 08:46:40;;;;;;;0.10;0.10;;;;;;;;;;4935501;29;20476;-86
2021/07/10 08:49:07;;;;;;;0.20;0.20;;;;;;;;;;4934430;29;20046;-86
2021/07/10 08:51:33;;;;;;;0.10;0.10;;;;;;;;;;4935194;29;20043;-85
2021/07/10 08:54:02;;;;;;;0.20;0.20;;;;;;;;;;4935919;29;20048;-90
2021/07/10 08:56:28;;;;;;;0.20;0.20;;;;;;;;;;4935610;29;20424;-87
2021/07/10 08:58:54;;;;;;;0.10;0.10;;;;;;;;;;4934997;29;20150;-86
2021/07/10 09:01:20;;;;;;;0.10;0.10;;;;;;;;;;4935083;29;20118;-86
2021/07/10 09:03:46;;;;;;;0.10;0.10;;;;;;;;;;4935192;29;20048;-87
2021/07/10 09:06:12;;;;;;;0.15;0.15;;;;;;;;;;4935036;29;20444;-86
2021/07/10 09:08:39;;;;;;;0.20;0.20;;;;;;;;;;4934888;29;20062;-87
2021/07/10 09:11:13;;;;;;;0.10;0.10;;;;;;;;;;4934975;29;20052;-86
2021/07/10 09:13:43;;;;;;;0.30;0.30;;;;;;;;;;4935014;29;20484;-86
2021/07/10 09:16:18;;;;;;;0.10;0.10;;;;;;;;;;4950526;29;20094;-87
2021/07/10 09:18:48;;;;;;;0.20;0.20;;;;;;;;;;4934806;29;20095;-87
2021/07/10 09:21:35;;;;;;;0.15;0.15;;;;;;;;;;4935399;29;20407;-86
2021/07/10 09:24:01;;;;;;;0.10;0.10;;;;;;;;;;4933291;29;20071;-86
2021/07/10 09:26:27;;;;;;;0.10;0.10;;;;;;;;;;4934932;29;20138;-87
2021/07/10 09:29:22;;;;;;;0.10;0.10;;;;;;;;;;4934601;29;20095;-85
2021/07/10 09:31:53;;;;;;;0.10;0.10;;;;;;;;;;4931629;29;20074;-88
2021/07/10 09:34:20;;;;;;;0.22;0.22;;;;;;;;;;4934438;29;20040;-87
2021/07/10 09:36:49;;;;;;;0.10;0.10;;;;;;;;;;4935062;29;20469;-91
2021/07/10 09:39:16;;;;;;;0.20;0.20;;;;;;;;;;4934687;29;20133;-86
2021/07/10 09:41:42;;;;;;;0.20;0.20;;;;;;;;;;4934243;29;20403;-86
2021/07/10 09:44:12;;;;;;;0.10;0.10;;;;;;;;;;4950106;29;20048;-84
2021/07/10 09:46:38;;;;;;;0.10;0.10;;;;;;;;;;4934285;29;20452;-85
2021/07/10 09:49:24;;;;;;;0.20;0.20;;;;;;;;;;4934229;29;20043;-86
2021/07/10 09:52:00;;;;;;;0.20;0.20;;;;;;;;;;4934337;29;20036;-85
2021/07/10 09:54:31;;;;;;;0.20;0.20;;;;;;;;;;4934163;29;20258;-85
2021/07/10 09:57:01;;;;;;;0.20;0.20;;;;;;;;;;4934708;29;20039;-89
2021/07/10 09:59:27;;;;;;;0.20;0.20;;;;;;;;;;4934091;29;20040;-85
2021/07/10 10:01:53;;;;;;;0.20;0.20;;;;;;;;;;4934015;29;20091;-86
2021/07/10 10:04:22;;;;;;;0.20;0.20;;;;;;;;;;4934128;29;20099;-85
2021/07/10 10:06:50;;;;;;;0.20;0.20;;;;;;;;;;4935358;29;20044;-87
2021/07/10 10:09:17;;;;;;;0.20;0.20;;;;;;;;;;4935881;29;20111;-85
2021/07/10 10:11:47;;;;;;;0.20;0.20;;;;;;;;;;4949870;29;20079;-87
2021/07/10 10:14:13;;;;;;;0.30;0.30;;;;;;;;;;4933938;29;20130;-86
2021/07/10 10:16:43;;;;;;;0.20;0.20;;;;;;;;;;4933821;29;20114;-86
2021/07/10 10:19:10;;;;;;;0.15;0.15;;;;;;;;;;4933836;29;20039;-86
2021/07/10 10:21:36;;;;;;;0.15;0.15;;;;;;;;;;4917938;29;20040;-86
2021/07/10 10:24:02;;;;;;;0.20;0.20;;;;;;;;;;4926368;29;20043;-86
2021/07/10 10:26:28;;;;;;;0.10;0.10;;;;;;;;;;4917974;29;20047;-86
2021/07/10 10:28:54;;;;;;;0.30;0.30;;;;;;;;;;4917536;29;20039;-85
2021/07/10 10:31:20;;;;;;;0.10;0.10;;;;;;;;;;4916654;29;20040;-86
2021/07/10 10:33:49;;;;;;;0.20;0.20;;;;;;;;;;4917899;29;20036;-87
2021/07/10 10:36:15;;;;;;;0.35;0.22;;;;;;;;;;4917884;29;20412;-87
2021/07/10 10:38:41;;;;;;;0.10;0.10;;;;;;;;;;4917925;29;20452;-88
2021/07/10 10:41:07;;;;;;;0.20;0.20;;;;;;;;;;4918042;29;20427;-87
2021/07/10 10:43:34;;;;;;;0.20;0.20;;;;;;;;;;4917915;29;20114;-87
2021/07/10 10:46:11;;;;;;;0.20;0.20;;;;;;;;;;4933577;29;20051;-87
2021/07/10 10:48:37;;;;;;;0.20;0.20;;;;;;;;;;4918071;29;20572;-87
2021/07/10 10:51:23;;;;;;;0.15;0.15;;;;;;;;;;4917936;29;20044;-89
2021/07/10 10:53:49;;;;;;;0.10;0.10;;;;;;;;;;4918417;29;20040;-90
2021/07/10 10:56:46;;;;;;;0.20;0.20;;;;;;;;;;4918443;29;20044;-90
2021/07/10 10:59:31;;;;;;;0.30;0.30;;;;;;;;;;4890838;29;20404;-90
2021/07/10 11:01:57;;;;;;;0.10;0.10;;;;;;;;;;4933857;29;20123;-91
2021/07/10 11:04:42;;;;;;;0.20;0.20;;;;;;;;;;4918267;29;20035;-90
2021/07/10 11:07:22;;;;;;;0.25;0.25;;;;;;;;;;4933374;29;20039;-90
2021/07/10 11:10:03;;;;;;;0.10;0.10;;;;;;;;;;4917945;29;20512;-89
2021/07/10 11:12:50;;;;;;;0.20;0.20;;;;;;;;;;4920242;29;20234;-90
2021/07/10 11:15:25;;;;;;;0.10;0.10;;;;;;;;;;4920972;29;20059;-90
2021/07/10 11:17:51;;;;;;;0.10;0.10;;;;;;;;;;4938303;29;20051;-91
2021/07/10 11:20:36;;;;;;;1.25;0.20;;;;;;;;;;4921346;29;20040;-90
2021/07/10 11:23:03;;;;;;;0.20;0.20;;;;;;;;;;4936969;29;20051;-90
2021/07/10 11:25:48;;;;;;;0.20;0.20;;;;;;;;;;4922279;29;20078;-89
2021/07/10 11:28:15;;;;;;;0.20;0.20;;;;;;;;;;4938068;29;20126;-91
2021/07/10 11:30:49;;;;;;;0.20;0.20;;;;;;;;;;4921300;29;20387;-89
2021/07/10 11:33:16;;;;;;;0.20;0.20;;;;;;;;;;4920265;29;20282;-92
2021/07/10 11:35:46;;;;;;;0.20;0.20;;;;;;;;;;4921448;29;20415;-90
2021/07/10 11:38:31;;;;;;;0.20;0.20;;;;;;;;;;4921141;29;20060;-89
2021/07/10 11:41:00;;;;;;;0.20;0.20;;;;;;;;;;4935304;29;20086;-88
2021/07/10 11:43:36;;;;;;;0.98;0.32;;;;;;;;;;4920685;29;20040;-87
2021/07/10 11:46:02;;;;;;;0.20;0.20;;;;;;;;;;4920590;29;20054;-88
2021/07/10 11:48:28;;;;;;;0.20;0.20;;;;;;;;;;4920615;29;20043;-90
2021/07/10 11:50:55;;;;;;;0.20;0.20;;;;;;;;;;4920917;29;20040;-86
2021/07/10 11:53:21;;;;;;;0.20;0.20;;;;;;;;;;4920530;29;20044;-87
2021/07/10 11:55:47;;;;;;;0.10;0.10;;;;;;;;;;4920501;29;20502;-87
2021/07/10 11:58:15;;;;;;;0.20;0.20;;;;;;;;;;4920699;29;20040;-89
2021/07/10 12:00:41;;;;;;;0.20;0.20;;;;;;;;;;4920418;29;20046;-89
2021/07/10 12:03:17;;;;;;;0.95;0.32;;;;;;;;;;4937226;29;20047;-87
2021/07/10 12:05:43;;;;;;;0.20;0.20;;;;;;;;;;4936006;29;20048;-88
2021/07/10 12:08:09;;;;;;;0.32;0.32;;;;;;;;;;4920161;29;20040;-88
2021/07/10 12:10:36;;;;;;;0.20;0.20;;;;;;;;;;4920269;29;20115;-89
2021/07/10 12:13:02;;;;;;;0.20;0.20;;;;;;;;;;4920224;29;20451;-88
2021/07/10 12:15:38;;;;;;;0.20;0.20;;;;;;;;;;4938770;29;20082;-90
2021/07/10 12:18:05;;;;;;;0.20;0.20;;;;;;;;;;4922472;29;20048;-88
2021/07/10 12:20:34;;;;;;;0.20;0.20;;;;;;;;;;4920205;29;20103;-89
2021/07/10 12:23:00;;;;;;;0.20;0.20;;;;;;;;;;4936050;29;20099;-89
2021/07/10 12:25:30;;;;;;;0.20;0.20;;;;;;;;;;4920124;29;20484;-89
2021/07/10 12:28:03;;;;;;;0.20;0.20;;;;;;;;;;4935802;29;20051;-89
2021/07/10 12:30:48;;;;;;;0.20;0.20;;;;;;;;;;4935686;29;20055;-90
2021/07/10 12:33:32;;;;;;;0.10;0.10;;;;;;;;;;4920526;29;20044;-89
2021/07/10 12:36:05;;;;;;;0.10;0.10;;;;;;;;;;4919809;29;20040;-90
2021/07/10 12:38:31;;;;;;;0.15;0.15;;;;;;;;;;4904208;29;20071;-90
2021/07/10 12:41:16;;;;;;;1.02;0.25;;;;;;;;;;4919968;29;20118;-86
2021/07/10 12:43:42;;;;;;;0.20;0.20;;;;;;;;;;4919743;29;20039;-86
2021/07/10 12:46:08;;;;;;;0.30;0.30;;;;;;;;;;4936519;29;20047;-85
2021/07/10 12:48:34;;;;;;;0.20;0.20;;;;;;;;;;4903568;29;20079;-85
2021/07/10 12:51:00;;;;;;;0.20;0.20;;;;;;;;;;4919516;29;20074;-85
2021/07/10 12:53:31;;;;;;;0.20;0.20;;;;;;;;;;4919510;29;20035;-86
2021/07/10 12:56:23;;;;;;;0.10;0.10;;;;;;;;;;4936494;29;20102;-86
2021/07/10 12:58:52;;;;;;;0.55;0.55;;;;;;;;;;4920984;29;20452;-89
2021/07/10 13:01:30;;;;;;;0.20;0.20;;;;;;;;;;4919759;29;20058;-86
2021/07/10 13:03:56;;;;;;;0.20;0.20;;;;;;;;;;4919436;29;20480;-86
2021/07/10 13:06:22;;;;;;;0.20;0.20;;;;;;;;;;4919168;29;20404;-86
2021/07/10 13:08:52;;;;;;;0.20;0.20;;;;;;;;;;4919610;29;20047;-86
2021/07/10 13:11:18;;;;;;;0.20;0.20;;;;;;;;;;4919154;29;20040;-88
2021/07/10 13:13:57;;;;;;;0.20;0.20;;;;;;;;;;4936029;29;20044;-87
2021/07/10 13:16:25;;;;;;;0.20;0.20;;;;;;;;;;4920541;29;20479;-87
2021/07/10 13:18:57;;;;;;;0.20;0.20;;;;;;;;;;4919147;29;20535;-87
2021/07/10 13:21:33;;;;;;;0.10;0.10;;;;;;;;;;4919083;29;20043;-88
2021/07/10 13:24:00;;;;;;;0.10;0.10;;;;;;;;;;4919062;29;20044;-87
2021/07/10 13:26:27;;;;;;;0.20;0.20;;;;;;;;;;4918971;29;20047;-86
2021/07/10 13:29:02;;;;;;;0.20;0.20;;;;;;;;;;4918712;29;20043;-87
2021/07/10 13:31:33;;;;;;;0.20;0.20;;;;;;;;;;4935917;29;20074;-87
2021/07/10 13:34:08;;;;;;;0.20;0.20;;;;;;;;;;4918696;29;20094;-87
2021/07/10 13:36:38;;;;;;;0.20;0.20;;;;;;;;;;4918523;29;20055;-89
2021/07/10 13:39:09;;;;;;;0.20;0.20;;;;;;;;;;4918598;29;20046;-87
2021/07/10 13:41:36;;;;;;;0.20;0.20;;;;;;;;;;4934418;29;20042;-86
2021/07/10 13:44:02;;;;;;;0.20;0.20;;;;;;;;;;4918541;29;20040;-87
2021/07/10 13:46:42;;;;;;;0.20;0.20;;;;;;;;;;4935485;29;20071;-87
2021/07/10 13:49:21;;;;;;;0.20;0.20;;;;;;;;;;4918626;29;20066;-87
2021/07/10 13:51:49;;;;;;;0.20;0.20;;;;;;;;;;4918475;29;20043;-87
2021/07/10 13:54:30;;;;;;;0.20;0.20;;;;;;;;;;4918433;29;20036;-87
2021/07/10 13:57:09;;;;;;;0.20;0.20;;;;;;;;;;4935257;29;20115;-88
2021/07/10 13:59:37;;;;;;;0.20;0.20;;;;;;;;;;4918678;29;20480;-89
2021/07/10 14:02:04;;;;;;;0.20;0.20;;;;;;;;;;4918496;29;20077;-89
2021/07/10 14:04:30;;;;;;;0.20;0.20;;;;;;;;;;4935450;29;20493;-87
2021/07/10 14:06:56;;;;;;;0.20;0.20;;;;;;;;;;4918342;29;20044;-87
2021/07/10 14:09:22;;;;;;;0.20;0.20;;;;;;;;;;4918380;29;20066;-87
2021/07/10 14:11:48;;;;;;;0.30;0.30;;;;;;;;;;4918192;29;20431;-87
2021/07/10 14:14:14;;;;;;;0.20;0.20;;;;;;;;;;4918096;29;20048;-88
2021/07/10 14:16:40;;;;;;;0.20;0.20;;;;;;;;;;4933677;29;20054;-87
2021/07/10 14:19:06;;;;;;;0.20;0.20;;;;;;;;;;4935202;29;20043;-86
2021/07/10 14:21:32;;;;;;;0.20;0.20;;;;;;;;;;4918208;29;20043;-86
2021/07/10 14:23:59;;;;;;;0.20;0.20;;;;;;;;;;4934986;29;20043;-90
2021/07/10 14:26:25;;;;;;;0.20;0.20;;;;;;;;;;4918130;29;20399;-86
2021/07/10 14:28:51;;;;;;;0.20;0.20;;;;;;;;;;4918086;29;20380;-86
2021/07/10 14:31:17;;;;;;;0.20;0.20;;;;;;;;;;4918016;29;20186;-87
2021/07/10 14:33:43;;;;;;;0.20;0.20;;;;;;;;;;4918094;29;20558;-87
2021/07/10 14:36:09;;;;;;;0.20;0.20;;;;;;;;;;4917787;29;20192;-87
2021/07/10 14:38:37;;;;;;;0.20;0.20;;;;;;;;;;4934920;29;20219;-86
2021/07/10 14:41:03;;;;;;;0.20;0.20;;;;;;;;;;4933749;29;20040;-87
2021/07/10 14:43:29;;;;;;;0.20;0.20;;;;;;;;;;4933613;29;20407;-86
2021/07/10 14:45:55;;;;;;;0.20;0.20;;;;;;;;;;4918101;29;20047;-87
2021/07/10 14:48:21;;;;;;;0.30;0.30;;;;;;;;;;4921570;29;20059;-86